createdAt,value
2023-03-29T10:11:31.726Z,13.90
2023-03-29T10:14:23.356Z,14.00
2023-03-29T10:17:03.295Z,14.60
2023-03-29T10:19:41.311Z,14.90
2023-03-29T10:22:20.260Z,15.40
2023-03-29T10:25:00.324Z,15.90
2023-03-29T10:27:38.308Z,15.80
2023-03-29T10:30:26.328Z,16.10
2023-03-29T10:33:07.374Z,15.80
2023-03-29T10:35:42.014Z,14.80
2023-03-29T10:38:23.288Z,14.80
2023-03-29T10:40:55.538Z,14.80
2023-03-29T10:43:45.427Z,14.80
2023-03-29T10:46:26.304Z,14.70
2023-03-29T10:49:12.366Z,14.40
2023-03-29T10:51:45.822Z,14.90
2023-03-29T10:54:27.372Z,15.20
2023-03-29T10:56:59.255Z,15.50
2023-03-29T11:00:00.412Z,15.80
2023-03-29T11:03:16.500Z,15.60
2023-03-29T11:05:54.521Z,15.60
2023-03-29T11:08:55.346Z,15.00
2023-03-29T11:11:41.559Z,14.60
2023-03-29T11:14:31.387Z,14.20
2023-03-29T11:17:45.360Z,14.20
2023-03-29T11:20:40.122Z,14.20
2023-03-29T11:23:47.389Z,14.10
2023-03-29T11:26:40.337Z,14.00
2023-03-29T11:29:32.332Z,13.80
2023-03-29T11:32:17.449Z,13.80
2023-03-29T11:35:37.400Z,13.80
2023-03-29T11:38:11.193Z,13.80
2023-03-29T11:41:24.375Z,14.20
2023-03-29T11:44:33.850Z,14.30
2023-03-29T11:47:18.344Z,14.20
2023-03-29T11:50:00.688Z,13.60
2023-03-29T11:52:47.350Z,13.00
2023-03-29T11:55:23.866Z,12.90
2023-03-29T11:58:14.397Z,12.80
2023-03-29T12:00:55.342Z,13.00
2023-03-29T12:03:42.215Z,13.00
2023-03-29T12:06:41.792Z,13.00
2023-03-29T12:09:28.395Z,13.10
2023-03-29T12:12:16.715Z,13.00
2023-03-29T12:15:18.470Z,13.00
2023-03-29T12:18:29.402Z,13.00
2023-03-29T12:21:11.336Z,12.90
2023-03-29T12:23:41.105Z,12.90
2023-03-29T12:26:42.527Z,12.90
2023-03-29T12:29:44.150Z,13.10
2023-03-29T12:32:54.385Z,12.80
2023-03-29T12:35:59.222Z,13.10
2023-03-29T12:38:36.376Z,13.40
2023-03-29T12:41:19.249Z,14.00
2023-03-29T12:43:54.355Z,14.30
2023-03-29T12:46:34.116Z,14.70
2023-03-29T12:49:24.348Z,14.40
2023-03-29T12:51:51.724Z,14.10
2023-03-29T12:54:34.367Z,14.10
2023-03-29T12:57:20.955Z,14.20
2023-03-29T12:59:56.363Z,14.00
2023-03-29T13:02:23.556Z,13.60
2023-03-29T13:05:01.537Z,13.20
2023-03-29T13:07:32.575Z,12.80
2023-03-29T13:10:10.336Z,12.50
2023-03-29T13:12:56.325Z,11.90
2023-03-29T13:15:33.387Z,11.40
2023-03-29T13:18:14.264Z,11.50
2023-03-29T13:21:05.393Z,11.40
2023-03-29T13:24:07.406Z,11.60
2023-03-29T13:27:01.825Z,11.90
2023-03-29T13:29:56.408Z,12.10
2023-03-29T13:32:57.463Z,12.20
2023-03-29T13:35:52.429Z,12.80
2023-03-29T13:38:31.898Z,13.30
2023-03-29T13:41:32.398Z,13.20
2023-03-29T13:44:00.428Z,13.50
2023-03-29T13:46:49.419Z,13.50
2023-03-29T13:49:28.769Z,13.50
2023-03-29T13:52:30.509Z,13.40
2023-03-29T13:55:13.760Z,13.40
2023-03-29T13:58:11.408Z,13.30
2023-03-29T14:00:58.669Z,13.30
2023-03-29T14:03:36.676Z,13.50
2023-03-29T14:06:05.674Z,13.50
2023-03-29T14:08:51.385Z,13.70
2023-03-29T14:11:33.442Z,14.00
2023-03-29T14:14:15.442Z,14.20
2023-03-29T14:16:42.801Z,14.30
2023-03-29T14:19:35.401Z,14.30
2023-03-29T14:22:16.410Z,14.50
2023-03-29T14:25:19.409Z,14.60
2023-03-29T14:27:53.404Z,14.80
2023-03-29T14:30:33.426Z,15.00
2023-03-29T14:33:20.363Z,15.30
2023-03-29T14:35:54.398Z,15.30
2023-03-29T14:38:31.463Z,15.30
2023-03-29T14:41:09.382Z,15.40
2023-03-29T14:43:44.376Z,15.30
2023-03-29T14:46:22.453Z,15.00
2023-03-29T14:48:56.413Z,14.80
2023-03-29T14:51:37.377Z,14.90
2023-03-29T14:54:19.407Z,14.60
2023-03-29T14:56:55.424Z,14.80
2023-03-29T14:59:43.044Z,15.20
2023-03-29T15:02:59.501Z,15.30
2023-03-29T15:05:46.953Z,15.30
2023-03-29T15:09:02.098Z,15.10
2023-03-29T15:11:34.495Z,15.00
2023-03-29T15:14:20.417Z,14.80
2023-03-29T15:16:51.991Z,14.70
2023-03-29T15:19:29.660Z,14.80
2023-03-29T15:22:03.436Z,14.80
2023-03-29T15:24:40.412Z,15.20
2023-03-29T15:27:19.932Z,15.40
2023-03-29T15:29:54.392Z,15.60
2023-03-29T15:32:31.516Z,15.60
2023-03-29T15:35:20.753Z,15.60
2023-03-29T15:37:54.457Z,15.40
2023-03-29T15:40:34.754Z,15.30
2023-03-29T15:43:01.887Z,15.00
2023-03-29T15:45:29.021Z,14.90
2023-03-29T15:48:03.475Z,14.60
2023-03-29T15:50:32.736Z,14.30
2023-03-29T15:53:14.597Z,14.20
2023-03-29T15:55:46.310Z,14.20
2023-03-29T15:58:26.408Z,14.10
2023-03-29T16:01:31.499Z,14.00
2023-03-29T16:04:05.500Z,13.80
2023-03-29T16:06:41.431Z,13.80
2023-03-29T16:09:18.451Z,13.80
2023-03-29T16:11:47.941Z,13.80
2023-03-29T16:14:34.550Z,13.80
2023-03-29T16:17:09.408Z,13.70
2023-03-29T16:19:36.445Z,13.70
2023-03-29T16:22:14.434Z,13.70
2023-03-29T16:24:41.625Z,13.60
2023-03-29T16:27:15.519Z,13.60
2023-03-29T16:29:42.727Z,13.50
2023-03-29T16:32:17.593Z,13.40
2023-03-29T16:34:59.457Z,13.30
2023-03-29T16:37:33.407Z,13.20
2023-03-29T16:40:07.436Z,13.10
2023-03-29T16:42:41.394Z,13.00
2023-03-29T16:45:21.435Z,13.00
2023-03-29T16:47:48.625Z,12.90
2023-03-29T16:50:26.410Z,12.70
2023-03-29T16:52:53.716Z,12.60
2023-03-29T16:55:27.384Z,12.50
2023-03-29T16:57:54.926Z,12.40
2023-03-29T17:00:28.425Z,12.40
2023-03-29T17:03:02.623Z,12.30
2023-03-29T17:05:37.395Z,12.30
2023-03-29T17:08:11.436Z,12.30
2023-03-29T17:10:47.439Z,12.20
2023-03-29T17:13:21.440Z,12.20
2023-03-29T17:15:59.442Z,12.20
2023-03-29T17:18:34.446Z,12.00
2023-03-29T17:21:01.885Z,11.90
2023-03-29T17:23:36.470Z,11.80
2023-03-29T17:26:11.628Z,11.70
2023-03-29T17:28:45.428Z,11.70
2023-03-29T17:31:19.679Z,11.60
2023-03-29T17:33:59.475Z,11.60
2023-03-29T17:36:35.512Z,11.50
2023-03-29T17:39:03.081Z,11.40
2023-03-29T17:41:36.431Z,11.20
2023-03-29T17:44:03.710Z,11.10
2023-03-29T17:46:38.444Z,11.00
2023-03-29T17:49:06.537Z,10.90
2023-03-29T17:51:40.454Z,10.80
2023-03-29T17:54:14.437Z,10.70
2023-03-29T17:56:48.521Z,10.70
2023-03-29T17:59:22.426Z,10.60
2023-03-29T18:01:56.490Z,10.60
2023-03-29T18:04:23.594Z,10.70
2023-03-29T18:06:57.455Z,10.60
2023-03-29T18:09:28.009Z,10.50
2023-03-29T18:12:03.476Z,10.50
2023-03-29T18:14:37.464Z,10.40
2023-03-29T18:17:11.607Z,10.30
2023-03-29T18:19:38.722Z,10.30
2023-03-29T18:22:06.360Z,10.10
2023-03-29T18:24:42.460Z,10.00
2023-03-29T18:27:16.436Z,9.80
2023-03-29T18:29:51.461Z,9.80
2023-03-29T18:32:25.646Z,9.70
2023-03-29T18:35:05.462Z,9.70
2023-03-29T18:37:39.522Z,9.80
2023-03-29T18:40:17.438Z,9.90
2023-03-29T18:42:44.571Z,10.10
2023-03-29T18:45:18.416Z,10.30
2023-03-29T18:47:45.633Z,10.40
2023-03-29T18:50:13.428Z,10.40
2023-03-29T18:52:47.451Z,10.50
2023-03-29T18:55:14.688Z,10.50
2023-03-29T18:57:42.338Z,10.40
2023-03-29T19:00:19.475Z,10.30
2023-03-29T19:02:46.997Z,10.10
2023-03-29T19:05:20.451Z,10.10
2023-03-29T19:07:47.634Z,10.10
2023-03-29T19:10:21.461Z,10.10
2023-03-29T19:12:49.348Z,10.00
2023-03-29T19:15:23.496Z,9.90
2023-03-29T19:17:57.487Z,9.80
2023-03-29T19:20:25.706Z,9.70
2023-03-29T19:23:00.511Z,9.60
2023-03-29T19:25:34.473Z,9.50
2023-03-29T19:28:10.466Z,9.40
2023-03-29T19:30:44.544Z,9.50
2023-03-29T19:33:25.492Z,9.60
2023-03-29T19:35:53.160Z,9.80
2023-03-29T19:38:28.454Z,10.00
2023-03-29T19:41:02.551Z,10.20
2023-03-29T19:43:36.483Z,10.30
2023-03-29T19:46:17.479Z,10.50
2023-03-29T19:48:51.525Z,10.70
2023-03-29T19:51:18.662Z,10.80
2023-03-29T19:53:45.940Z,10.80
2023-03-29T19:56:21.428Z,10.90
2023-03-29T19:58:49.349Z,11.00
2023-03-29T20:01:27.524Z,11.00
2023-03-29T20:04:01.530Z,11.00
2023-03-29T20:06:35.521Z,11.20
2023-03-29T20:09:05.258Z,11.40
2023-03-29T20:11:39.602Z,11.30
2023-03-29T20:14:13.454Z,11.40
2023-03-29T20:16:48.723Z,11.40
2023-03-29T20:19:23.444Z,11.40
2023-03-29T20:22:01.465Z,11.40
2023-03-29T20:24:29.225Z,11.50
2023-03-29T20:27:02.531Z,11.40
2023-03-29T20:29:36.524Z,11.40
2023-03-29T20:32:10.541Z,11.40
2023-03-29T20:34:50.480Z,11.50
2023-03-29T20:37:24.435Z,11.60
2023-03-29T20:39:59.492Z,11.60
2023-03-29T20:42:36.538Z,11.70
2023-03-29T20:45:04.920Z,11.70
2023-03-29T20:47:40.760Z,11.80
2023-03-29T20:50:16.437Z,11.80
2023-03-29T20:52:49.503Z,11.80
2023-03-29T20:55:28.572Z,11.90
2023-03-29T20:58:03.519Z,11.90
2023-03-29T21:00:40.499Z,11.90
2023-03-29T21:03:08.635Z,11.80
2023-03-29T21:05:42.471Z,12.00
2023-03-29T21:08:10.087Z,12.00
2023-03-29T21:11:00.631Z,12.10
2023-03-29T21:13:41.541Z,12.00
2023-03-29T21:16:15.451Z,12.10
2023-03-29T21:18:50.579Z,12.10
2023-03-29T21:21:17.759Z,12.10
2023-03-29T21:23:51.447Z,12.10
2023-03-29T21:26:18.597Z,12.10
2023-03-29T21:28:52.538Z,12.10
2023-03-29T21:31:26.525Z,12.10
2023-03-29T21:34:07.537Z,12.20
2023-03-29T21:36:35.241Z,12.20
2023-03-29T21:39:08.509Z,12.20
2023-03-29T21:41:35.623Z,12.30
2023-03-29T21:44:09.519Z,12.20
2023-03-29T21:46:36.669Z,12.20
2023-03-29T21:49:10.483Z,12.30
2023-03-29T21:51:44.501Z,12.20
2023-03-29T21:54:11.663Z,12.20
2023-03-29T21:56:45.584Z,12.20
2023-03-29T21:59:19.471Z,12.20
2023-03-29T22:01:53.530Z,12.20
2023-03-29T22:04:36.507Z,12.20
2023-03-29T22:07:06.348Z,12.10
2023-03-29T22:09:41.602Z,12.20
2023-03-29T22:12:10.163Z,12.20
2023-03-29T22:14:43.472Z,12.10
2023-03-29T22:17:10.578Z,12.10
2023-03-29T22:19:39.385Z,12.10
2023-03-29T22:22:19.568Z,12.10
2023-03-29T22:24:53.505Z,12.10
2023-03-29T22:27:29.494Z,12.10
2023-03-29T22:29:56.569Z,12.10
2023-03-29T22:32:30.527Z,12.10
2023-03-29T22:35:11.474Z,12.20
2023-03-29T22:37:43.929Z,12.10
2023-03-29T22:40:18.545Z,12.20
2023-03-29T22:42:48.026Z,12.20
2023-03-29T22:45:21.496Z,12.10
2023-03-29T22:47:48.586Z,12.20
2023-03-29T22:50:22.506Z,12.20
2023-03-29T22:52:49.629Z,12.30
2023-03-29T22:55:29.723Z,12.30
2023-03-29T22:58:03.517Z,12.30
2023-03-29T23:00:37.502Z,12.30
2023-03-29T23:03:04.836Z,12.30
2023-03-29T23:05:42.790Z,12.30
2023-03-29T23:08:10.241Z,12.30
2023-03-29T23:10:43.822Z,12.30
2023-03-29T23:13:17.484Z,12.30
2023-03-29T23:15:55.587Z,12.40
2023-03-29T23:18:30.521Z,12.40
2023-03-29T23:21:06.353Z,12.50
2023-03-29T23:23:33.939Z,12.60
2023-03-29T23:26:08.530Z,12.60
2023-03-29T23:28:42.574Z,12.70
2023-03-29T23:31:24.514Z,12.70
2023-03-29T23:33:59.282Z,12.60
2023-03-29T23:36:34.506Z,12.40
2023-03-29T23:39:08.633Z,12.20
2023-03-29T23:41:36.440Z,12.20
2023-03-29T23:44:10.514Z,12.20
2023-03-29T23:46:37.686Z,12.30
2023-03-29T23:49:11.517Z,12.40
2023-03-29T23:51:39.341Z,12.40
2023-03-29T23:54:13.502Z,12.50
2023-03-29T23:56:47.547Z,12.50
2023-03-29T23:59:14.602Z,12.60
